Time;durP1;ratioP1;P1;durP2;ratioP2;P2;SDS_P1;SDS_P2;PMS_P1;PMS_P2;Temp;Humidity;BMP_temperature;BMP_pressure;BME280_temperature;BME280_humidity;BME280_pressure;Samples;Min_cycle;Max_cycle;Signal;HPM_P1;HPM_P2
2022/01/13 00:02:19;;;;;;;1.13;1.02;;;5.10;99.90;;;;;;5082114;28;20048;-81
2022/01/13 00:04:46;;;;;;;1.17;1.10;;;5.10;99.90;;;;;;5063226;28;20045;-82
2022/01/13 00:07:12;;;;;;;1.70;1.60;;;5.10;99.90;;;;;;5074794;28;20060;-82
2022/01/13 00:09:38;;;;;;;1.45;1.35;;;5.10;99.90;;;;;;5078609;28;20052;-82
2022/01/13 00:12:06;;;;;;;2.08;1.75;;;5.10;99.90;;;;;;5069553;28;20045;-82
2022/01/13 00:19:46;;;;;;;10.45;2.38;;;5.00;99.90;;;;;;5079285;28;20041;-82
2022/01/13 00:22:41;;;;;;;2.72;1.80;;;5.00;99.90;;;;;;5074502;28;20079;-82
2022/01/13 00:25:09;;;;;;;;;;;5.00;99.90;;;;;;5058739;28;20115;-82
2022/01/13 00:27:38;;;;;;;2.28;2.08;;;4.90;99.90;;;;;;5067427;28;19924;-82
2022/01/13 00:30:04;;;;;;;1.05;1.05;;;4.90;99.90;;;;;;5075760;28;20040;-82
2022/01/13 00:32:32;;;;;;;0.85;0.85;;;4.90;99.90;;;;;;5071303;28;20044;-82
2022/01/13 00:34:58;;;;;;;0.93;0.90;;;4.90;99.90;;;;;;5072347;28;20052;-82
2022/01/13 00:37:24;;;;;;;5.32;2.03;;;4.90;99.90;;;;;;5068590;28;20041;-82
2022/01/13 00:39:49;;;;;;;2.20;1.95;;;4.90;99.90;;;;;;5075330;28;20045;-82
2022/01/13 00:42:15;;;;;;;1.42;1.33;;;4.90;99.90;;;;;;5068701;28;20155;-82
2022/01/13 00:44:42;;;;;;;2.63;1.98;;;4.90;99.90;;;;;;5070182;28;20039;-82
2022/01/13 00:47:10;;;;;;;1.60;1.50;;;4.90;99.90;;;;;;5071666;28;20055;-82
2022/01/13 00:49:36;;;;;;;1.08;0.95;;;4.90;99.90;;;;;;5084469;28;20042;-82
2022/01/13 00:52:03;;;;;;;1.02;0.95;;;4.80;99.90;;;;;;5086935;28;20052;-82
2022/01/13 00:54:28;;;;;;;0.95;0.95;;;4.80;99.90;;;;;;5068234;28;20082;-82
2022/01/13 00:56:54;;;;;;;2.05;1.73;;;4.80;99.90;;;;;;5065136;28;20041;-82
2022/01/13 00:59:20;;;;;;;1.30;1.13;;;4.80;99.90;;;;;;5074983;28;20045;-82
2022/01/13 01:01:50;;;;;;;0.90;0.90;;;4.90;99.90;;;;;;5078360;28;20428;-82
2022/01/13 01:04:17;;;;;;;3.83;0.95;;;4.80;99.90;;;;;;5077142;28;20037;-82
2022/01/13 01:06:43;;;;;;;0.80;0.80;;;4.80;99.90;;;;;;5076560;28;20045;-82
2022/01/13 01:09:14;;;;;;;4.88;1.33;;;4.80;99.90;;;;;;5079860;28;20052;-82
2022/01/13 01:11:41;;;;;;;2.45;1.77;;;4.80;99.90;;;;;;5078771;28;20045;-81
2022/01/13 01:14:08;;;;;;;1.40;1.30;;;4.80;99.90;;;;;;5070528;28;20060;-82
2022/01/13 01:16:36;;;;;;;0.90;0.90;;;4.80;99.90;;;;;;5079163;28;20554;-82
2022/01/13 01:19:06;;;;;;;1.08;0.90;;;4.80;99.90;;;;;;5081157;28;20062;-81
2022/01/13 01:21:49;;;;;;;1.45;1.35;;;4.90;99.90;;;;;;5070816;28;20032;-81
2022/01/13 01:26:48;;;;;;;1.15;1.05;;;4.70;99.90;;;;;;5074322;28;20053;-81
2022/01/13 01:31:48;;;;;;;1.67;1.58;;;4.70;99.90;;;;;;5072908;28;20107;-81
2022/01/13 01:34:42;;;;;;;2.42;2.22;;;4.70;99.90;;;;;;5068391;28;21048;-81
2022/01/13 01:37:15;;;;;;;0.68;0.68;;;4.70;99.90;;;;;;5049634;28;20056;-81
2022/01/13 01:39:42;;;;;;;1.67;1.58;;;4.70;99.90;;;;;;5073893;28;20032;-82
2022/01/13 01:42:08;;;;;;;0.80;0.80;;;4.70;99.90;;;;;;5073878;28;20049;-81
2022/01/13 01:44:40;;;;;;;1.67;1.58;;;4.70;99.90;;;;;;5068868;28;20064;-81
2022/01/13 01:47:10;;;;;;;0.80;0.80;;;4.60;99.90;;;;;;5054081;28;20440;-81
2022/01/13 01:49:40;;;;;;;1.20;1.10;;;4.60;99.90;;;;;;5072969;28;20426;-82
2022/01/13 01:52:08;;;;;;;2.47;2.28;;;4.60;99.90;;;;;;5065077;28;20045;-81
2022/01/13 01:54:34;;;;;;;2.40;1.55;;;4.70;99.90;;;;;;5071780;28;20049;-81
2022/01/13 01:57:00;;;;;;;0.90;0.90;;;4.70;99.90;;;;;;5067414;28;20036;-81
2022/01/13 01:59:30;;;;;;;2.88;1.63;;;4.60;99.90;;;;;;5077340;28;20045;-81
2022/01/13 02:01:56;;;;;;;1.90;1.80;;;4.60;99.90;;;;;;5074147;28;20043;-82
2022/01/13 02:04:25;;;;;;;1.10;1.00;;;4.60;99.90;;;;;;5072485;28;20104;-81
2022/01/13 02:06:51;;;;;;;1.35;1.25;;;4.60;99.90;;;;;;5072608;28;20045;-81
2022/01/13 02:09:18;;;;;;;1.75;1.23;;;4.60;99.90;;;;;;5076103;28;20081;-80
2022/01/13 02:11:48;;;;;;;1.02;0.90;;;4.70;99.90;;;;;;5058610;28;20048;-81
2022/01/13 02:17:00;;;;;;;1.35;1.25;;;4.70;99.90;;;;;;5074766;28;20106;-81
2022/01/13 02:19:26;;;;;;;1.10;1.00;;;4.60;99.90;;;;;;5074274;28;20067;-81
2022/01/13 02:21:52;;;;;;;1.15;1.08;;;4.60;99.90;;;;;;5077560;28;20062;-81
2022/01/13 02:24:18;;;;;;;1.15;1.05;;;4.60;99.90;;;;;;5075385;28;20036;-81
2022/01/13 02:26:44;;;;;;;6.07;3.05;;;4.60;99.90;;;;;;5074744;28;20077;-81
2022/01/13 02:29:10;;;;;;;1.38;1.27;;;4.60;99.90;;;;;;5079341;28;20044;-80
2022/01/13 02:31:36;;;;;;;1.23;1.13;;;4.60;99.90;;;;;;5076109;28;20072;-81
2022/01/13 02:34:01;;;;;;;2.67;1.52;;;4.70;99.90;;;;;;5075352;28;20044;-81
2022/01/13 02:36:30;;;;;;;1.35;1.25;;;4.70;99.90;;;;;;5079397;28;20083;-81
2022/01/13 02:38:57;;;;;;;1.48;1.38;;;4.70;99.90;;;;;;5071483;28;20053;-81
2022/01/13 02:41:24;;;;;;;1.63;1.10;;;4.60;99.90;;;;;;5077126;28;20036;-81
2022/01/13 02:43:52;;;;;;;0.98;0.98;;;4.60;99.90;;;;;;5075446;28;20048;-81
2022/01/13 02:46:55;;;;;;;1.42;1.33;;;4.70;99.90;;;;;;5080163;28;20040;-80
2022/01/13 02:49:21;;;;;;;3.47;1.60;;;4.70;99.90;;;;;;5071841;28;20044;-81
2022/01/13 02:51:49;;;;;;;2.15;2.05;;;4.60;99.90;;;;;;5075688;28;20049;-81
2022/01/13 02:54:15;;;;;;;1.58;1.48;;;4.70;99.90;;;;;;5073763;28;20043;-81
2022/01/13 02:56:43;;;;;;;0.93;0.93;;;4.60;99.90;;;;;;5077765;28;20052;-81
2022/01/13 02:59:09;;;;;;;0.80;0.80;;;4.60;99.90;;;;;;5073891;28;20057;-81
2022/01/13 03:01:35;;;;;;;0.70;0.70;;;4.60;99.90;;;;;;5066295;28;20450;-81
2022/01/13 03:04:05;;;;;;;0.80;0.80;;;4.60;99.90;;;;;;5071786;28;20065;-81
2022/01/13 03:06:34;;;;;;;1.60;1.50;;;4.60;99.90;;;;;;5076359;28;20059;-81
2022/01/13 03:09:01;;;;;;;1.25;1.15;;;4.70;99.90;;;;;;5070547;28;20045;-81
2022/01/13 03:11:33;;;;;;;1.15;1.08;;;4.70;99.90;;;;;;5078774;28;20039;-81
2022/01/13 03:14:00;;;;;;;0.70;0.70;;;4.60;99.90;;;;;;5073389;28;20048;-81
2022/01/13 03:16:26;;;;;;;1.30;1.20;;;4.60;99.90;;;;;;5071798;28;20040;-81
2022/01/13 03:18:51;;;;;;;1.10;1.00;;;4.60;99.90;;;;;;5072536;28;20728;-81
2022/01/13 03:21:17;;;;;;;1.38;1.17;;;4.60;99.90;;;;;;5073209;28;20045;-80
2022/01/13 03:23:43;;;;;;;2.90;1.88;;;4.60;99.90;;;;;;5079939;28;20074;-81
2022/01/13 03:26:09;;;;;;;1.08;1.00;;;4.60;99.90;;;;;;5050349;28;20107;-81
2022/01/13 03:28:39;;;;;;;1.05;1.02;;;4.60;99.90;;;;;;5074355;28;20180;-80
2022/01/13 03:31:07;;;;;;;1.15;1.10;;;4.60;99.90;;;;;;5069879;28;20071;-81
2022/01/13 03:33:33;;;;;;;1.13;1.02;;;4.70;99.90;;;;;;5072219;28;20041;-81
2022/01/13 03:36:00;;;;;;;5.25;1.38;;;4.70;99.90;;;;;;5075940;28;20054;-81
2022/01/13 03:38:26;;;;;;;3.80;3.10;;;4.70;99.90;;;;;;5078863;28;20044;-81
2022/01/13 03:40:52;;;;;;;2.67;2.47;;;4.60;99.90;;;;;;5066188;28;20048;-81
2022/01/13 03:43:18;;;;;;;1.25;1.15;;;4.60;99.90;;;;;;5076464;28;20096;-80
2022/01/13 03:45:45;;;;;;;1.63;1.52;;;4.60;99.90;;;;;;5047511;28;20052;-81
2022/01/13 03:48:13;;;;;;;1.10;1.02;;;4.60;99.90;;;;;;5069856;28;20044;-81
2022/01/13 03:50:40;;;;;;;1.02;0.98;;;4.60;99.90;;;;;;5065195;28;20048;-81
2022/01/13 03:53:31;;;;;;;0.80;0.80;;;4.60;99.90;;;;;;5073304;28;20143;-81
2022/01/13 03:57:00;;;;;;;1.50;1.40;;;4.70;99.90;;;;;;5077344;28;20072;-81
2022/01/13 03:59:40;;;;;;;2.75;1.92;;;4.60;99.90;;;;;;5065523;28;20064;-81
2022/01/13 04:02:10;;;;;;;1.83;1.70;;;4.70;99.90;;;;;;5070871;28;20459;-81
2022/01/13 04:04:41;;;;;;;1.00;1.00;;;4.60;99.90;;;;;;5069768;28;20049;-82
2022/01/13 04:07:14;;;;;;;1.10;1.00;;;4.60;99.90;;;;;;5064778;28;20044;-81
2022/01/13 04:09:40;;;;;;;1.35;1.25;;;4.60;99.90;;;;;;5070172;28;20045;-81
2022/01/13 04:12:07;;;;;;;1.90;1.73;;;4.60;99.90;;;;;;5078324;28;20043;-81
2022/01/13 04:14:45;;;;;;;0.70;0.70;;;4.60;99.90;;;;;;5065993;28;20067;-81
2022/01/13 04:17:21;;;;;;;0.80;0.80;;;4.60;99.90;;;;;;5073836;28;20037;-82
2022/01/13 04:19:48;;;;;;;2.85;1.40;;;4.60;99.90;;;;;;5071151;28;20444;-80
2022/01/13 04:22:15;;;;;;;2.75;1.92;;;4.60;99.90;;;;;;5046661;28;20155;-80
2022/01/13 04:24:46;;;;;;;1.45;1.35;;;4.70;99.90;;;;;;5062998;28;20119;-81
2022/01/13 04:27:21;;;;;;;1.52;1.42;;;4.70;99.90;;;;;;5076651;28;20116;-81
2022/01/13 04:29:49;;;;;;;0.80;0.80;;;4.70;99.90;;;;;;5067325;28;20043;-81
2022/01/13 04:32:14;;;;;;;3.25;1.63;;;4.70;99.90;;;;;;5074051;28;20119;-81
2022/01/13 04:34:40;;;;;;;1.40;1.30;;;4.80;99.90;;;;;;5074776;28;20048;-81
2022/01/13 04:37:06;;;;;;;1.00;1.00;;;4.90;99.90;;;;;;5079498;28;20041;-80
2022/01/13 04:39:32;;;;;;;1.23;1.13;;;4.70;99.90;;;;;;5071498;28;20039;-81
2022/01/13 04:41:58;;;;;;;0.90;0.90;;;4.70;99.90;;;;;;5070778;28;20037;-81
2022/01/13 04:44:25;;;;;;;1.33;1.23;;;4.70;99.90;;;;;;5073985;28;20464;-81
2022/01/13 04:46:54;;;;;;;1.60;1.50;;;4.70;99.90;;;;;;5072672;28;20037;-81
2022/01/13 04:49:21;;;;;;;2.38;1.38;;;4.70;99.90;;;;;;5086524;28;20060;-82
2022/01/13 04:51:51;;;;;;;1.20;1.10;;;4.70;99.90;;;;;;5073318;28;20366;-81
2022/01/13 04:54:17;;;;;;;1.52;1.42;;;4.70;99.90;;;;;;5070502;28;20049;-82
2022/01/13 04:57:04;;;;;;;1.23;1.13;;;4.70;99.90;;;;;;5070972;28;20037;-81
2022/01/13 04:59:29;;;;;;;0.85;0.85;;;4.70;99.90;;;;;;5075088;28;20131;-82
2022/01/13 05:01:55;;;;;;;0.70;0.70;;;4.70;99.90;;;;;;5074909;28;20170;-82
2022/01/13 05:04:21;;;;;;;1.10;1.10;;;4.70;99.90;;;;;;5075515;28;20149;-82
2022/01/13 05:06:47;;;;;;;1.38;1.27;;;4.70;99.90;;;;;;5071730;28;20397;-81
2022/01/13 05:09:12;;;;;;;0.80;0.80;;;4.70;99.90;;;;;;5075066;28;20088;-81
2022/01/13 05:11:38;;;;;;;4.63;1.35;;;4.70;99.90;;;;;;5068323;28;20106;-82
2022/01/13 05:14:04;;;;;;;0.90;0.90;;;4.70;99.90;;;;;;5073445;28;20090;-82
2022/01/13 05:16:48;;;;;;;1.27;1.17;;;4.70;99.90;;;;;;5078892;28;20096;-82
2022/01/13 05:19:18;;;;;;;1.13;1.08;;;4.70;99.90;;;;;;5069242;28;20109;-81
2022/01/13 05:22:06;;;;;;;1.02;0.93;;;4.70;99.90;;;;;;5070484;28;20033;-81
2022/01/13 05:24:29;;;;;;;1.15;1.05;;;4.70;99.90;;;;;;5074787;28;20048;-81
2022/01/13 05:26:55;;;;;;;0.95;0.95;;;4.70;99.90;;;;;;5079232;28;20040;-81
2022/01/13 05:29:21;;;;;;;3.33;2.17;;;4.70;99.90;;;;;;5070673;28;20048;-81
2022/01/13 05:31:48;;;;;;;1.15;1.13;;;4.70;99.90;;;;;;5071813;28;20100;-82
2022/01/13 05:34:14;;;;;;;1.30;1.13;;;4.70;99.90;;;;;;5079980;28;20160;-82
2022/01/13 05:36:40;;;;;;;1.85;1.35;;;4.70;99.90;;;;;;5071125;28;20044;-82
2022/01/13 05:39:06;;;;;;;1.38;1.27;;;4.70;99.90;;;;;;5072396;28;20036;-82
2022/01/13 05:41:33;;;;;;;1.42;1.33;;;4.80;99.90;;;;;;5081043;28;20037;-82
2022/01/13 05:43:59;;;;;;;0.93;0.93;;;4.80;99.90;;;;;;5075801;28;20144;-82
2022/01/13 05:46:25;;;;;;;1.00;1.00;;;4.70;99.90;;;;;;5081109;28;20462;-82
2022/01/13 05:48:50;;;;;;;0.80;0.80;;;4.70;99.90;;;;;;5075543;28;20052;-82
2022/01/13 05:51:16;;;;;;;1.20;1.13;;;4.70;99.90;;;;;;5075620;28;20048;-82
2022/01/13 05:53:42;;;;;;;0.90;0.90;;;4.80;99.90;;;;;;5082149;28;20040;-82
2022/01/13 05:56:09;;;;;;;0.77;0.77;;;4.80;99.90;;;;;;5079768;28;20047;-82
2022/01/13 05:58:35;;;;;;;1.17;1.15;;;4.80;99.90;;;;;;5082252;28;20048;-82
2022/01/13 06:01:00;;;;;;;1.10;1.05;;;4.80;99.90;;;;;;5074523;28;20048;-82
2022/01/13 06:03:26;;;;;;;3.47;2.63;;;4.80;99.90;;;;;;5079826;28;20040;-82
2022/01/13 06:05:51;;;;;;;1.77;1.50;;;4.90;99.90;;;;;;5074121;28;20037;-81
2022/01/13 06:08:17;;;;;;;1.85;1.75;;;4.90;99.90;;;;;;5073929;28;20059;-82
2022/01/13 06:10:45;;;;;;;1.95;1.38;;;4.90;99.90;;;;;;5072694;28;20048;-82
2022/01/13 06:13:11;;;;;;;1.77;1.67;;;4.90;99.90;;;;;;5075988;28;20044;-82
2022/01/13 06:15:37;;;;;;;14.30;2.22;;;4.90;99.90;;;;;;5048535;28;20592;-82
2022/01/13 06:18:03;;;;;;;1.13;1.10;;;4.90;99.90;;;;;;5074160;28;20064;-82
2022/01/13 06:20:30;;;;;;;2.10;1.55;;;4.90;99.90;;;;;;5069634;28;20070;-83
2022/01/13 06:22:57;;;;;;;1.75;1.65;;;5.00;99.90;;;;;;5070797;28;20053;-82
2022/01/13 06:25:23;;;;;;;0.90;0.90;;;5.00;99.90;;;;;;5077595;28;20093;-82
2022/01/13 06:27:49;;;;;;;2.15;1.52;;;5.00;99.90;;;;;;5076830;28;20049;-82
2022/01/13 06:30:15;;;;;;;1.50;1.40;;;5.00;99.90;;;;;;5071751;28;20097;-82
2022/01/13 06:32:46;;;;;;;11.35;2.22;;;5.10;99.90;;;;;;5075033;28;20044;-82
2022/01/13 06:35:12;;;;;;;1.35;1.25;;;5.00;99.90;;;;;;5075155;28;20044;-82
2022/01/13 06:37:38;;;;;;;2.85;1.17;;;5.10;99.90;;;;;;5074055;28;20045;-82
2022/01/13 06:40:05;;;;;;;2.45;2.25;;;5.10;99.90;;;;;;5073976;28;20041;-82
2022/01/13 06:42:31;;;;;;;2.45;2.25;;;5.10;99.90;;;;;;5073646;28;20075;-82
2022/01/13 06:44:56;;;;;;;1.17;1.10;;;5.10;99.90;;;;;;5062900;28;20045;-82
2022/01/13 06:47:22;;;;;;;24.08;2.50;;;5.10;99.90;;;;;;5067033;28;20183;-82
2022/01/13 06:49:48;;;;;;;1.50;1.30;;;5.10;99.90;;;;;;5070019;28;20049;-83
2022/01/13 06:52:16;;;;;;;1.50;1.40;;;5.20;99.90;;;;;;5074460;28;20045;-82
2022/01/13 06:54:42;;;;;;;1.25;1.15;;;5.10;99.90;;;;;;5070322;28;20056;-82
2022/01/13 06:57:08;;;;;;;4.32;2.28;;;5.20;99.90;;;;;;5067671;28;20040;-82
2022/01/13 06:59:33;;;;;;;1.05;1.05;;;5.20;99.90;;;;;;5068397;28;20123;-82
2022/01/13 07:02:01;;;;;;;1.80;1.60;;;5.30;99.90;;;;;;5074374;28;20070;-82
2022/01/13 07:04:28;;;;;;;2.25;1.17;;;5.30;99.90;;;;;;5073444;28;20049;-82
2022/01/13 07:06:54;;;;;;;0.93;0.90;;;5.30;99.90;;;;;;5073715;28;20048;-82
2022/01/13 07:09:21;;;;;;;1.60;1.50;;;5.30;99.90;;;;;;5073966;28;20041;-82
2022/01/13 07:11:47;;;;;;;1.10;0.90;;;5.40;99.90;;;;;;5075041;28;20398;-82
2022/01/13 07:14:13;;;;;;;3.50;2.45;;;5.40;99.90;;;;;;5066503;28;20101;-81
2022/01/13 07:16:41;;;;;;;1.48;1.38;;;5.40;99.90;;;;;;5067005;28;20512;-81
2022/01/13 07:19:08;;;;;;;4.68;3.13;;;5.50;99.90;;;;;;5067945;28;20063;-82
2022/01/13 07:21:34;;;;;;;1.45;1.27;;;5.60;99.90;;;;;;5071429;28;20072;-81
2022/01/13 07:24:00;;;;;;;1.15;1.05;;;5.60;99.90;;;;;;5067586;28;20044;-82
2022/01/13 07:26:26;;;;;;;1.55;1.20;;;5.50;99.90;;;;;;5073507;28;20038;-81
2022/01/13 07:28:52;;;;;;;2.50;1.42;;;5.50;99.90;;;;;;5072203;28;20079;-82
2022/01/13 07:31:17;;;;;;;1.35;1.25;;;5.40;99.90;;;;;;5080140;28;20037;-82
2022/01/13 07:33:44;;;;;;;1.70;1.50;;;5.50;99.90;;;;;;5071740;28;20044;-83
2022/01/13 07:36:09;;;;;;;1.67;1.50;;;5.50;99.90;;;;;;5076032;28;20056;-82
2022/01/13 07:38:35;;;;;;;0.90;0.90;;;5.50;99.90;;;;;;5060377;28;20044;-82
2022/01/13 07:41:01;;;;;;;3.05;2.35;;;5.50;99.90;;;;;;5078397;28;20070;-80
2022/01/13 07:43:27;;;;;;;2.65;1.38;;;5.40;99.90;;;;;;5073413;28;20056;-81
2022/01/13 07:45:53;;;;;;;2.05;1.80;;;5.40;99.90;;;;;;5072295;28;20066;-81
2022/01/13 07:48:20;;;;;;;3.25;2.13;;;5.40;99.90;;;;;;5067225;28;20051;-80
2022/01/13 07:50:46;;;;;;;1.70;1.60;;;5.40;99.90;;;;;;5073185;28;20491;-81
2022/01/13 07:53:11;;;;;;;4.03;1.70;;;5.40;99.90;;;;;;5057585;28;20047;-81
2022/01/13 07:55:37;;;;;;;1.33;1.13;;;5.40;99.90;;;;;;5075317;28;20568;-81
2022/01/13 07:58:03;;;;;;;2.05;1.30;;;5.40;99.90;;;;;;5076300;28;20060;-80
2022/01/13 08:00:29;;;;;;;2.72;1.90;;;5.30;99.90;;;;;;5073729;28;20049;-81
2022/01/13 08:02:55;;;;;;;1.52;1.42;;;5.30;99.90;;;;;;5070931;28;20041;-81
2022/01/13 08:05:20;;;;;;;2.63;2.30;;;5.40;99.90;;;;;;5070971;28;20041;-82
2022/01/13 08:07:46;;;;;;;1.25;1.15;;;5.30;99.90;;;;;;5081046;28;20108;-82
2022/01/13 08:10:13;;;;;;;1.00;1.00;;;5.30;99.90;;;;;;5070619;28;20147;-81
2022/01/13 08:12:40;;;;;;;1.52;1.42;;;5.30;99.90;;;;;;5067190;28;20432;-80
2022/01/13 08:15:10;;;;;;;0.93;0.93;;;5.30;99.90;;;;;;5080921;28;20040;-81
2022/01/13 08:20:20;;;;;;;;;;;5.20;99.90;;;;;;5075547;28;20052;-81
2022/01/13 08:22:45;;;;;;;1.17;1.10;;;5.20;99.90;;;;;;5078191;28;19924;-81
2022/01/13 08:25:11;;;;;;;4.43;1.92;;;5.30;99.90;;;;;;5079651;28;20037;-82
2022/01/13 08:27:38;;;;;;;2.88;1.15;;;5.20;99.90;;;;;;5079695;28;20041;-81
2022/01/13 08:30:05;;;;;;;1.05;0.98;;;5.20;99.90;;;;;;5081577;28;20419;-81
2022/01/13 08:32:30;;;;;;;3.45;2.08;;;5.20;99.90;;;;;;5073333;28;20049;-82
2022/01/13 08:34:56;;;;;;;1.52;1.42;;;5.20;99.90;;;;;;5076784;28;20039;-81
2022/01/13 08:37:22;;;;;;;5.40;1.85;;;5.20;99.90;;;;;;5078841;28;20497;-82
2022/01/13 08:39:47;;;;;;;2.60;1.63;;;5.20;99.90;;;;;;5078932;28;20044;-81
2022/01/13 08:42:14;;;;;;;0.80;0.80;;;5.20;99.90;;;;;;5082483;28;20036;-81
2022/01/13 08:44:40;;;;;;;1.52;1.42;;;5.20;99.90;;;;;;5078818;28;20112;-81
2022/01/13 08:47:06;;;;;;;1.00;1.00;;;5.20;99.90;;;;;;5078726;28;20100;-81
2022/01/13 08:49:32;;;;;;;23.73;1.42;;;5.20;99.90;;;;;;5077287;28;20067;-81
2022/01/13 08:51:58;;;;;;;1.10;1.10;;;5.20;99.90;;;;;;5079550;28;20044;-81
2022/01/13 08:54:24;;;;;;;0.90;0.90;;;5.20;99.90;;;;;;5081720;28;20080;-81
2022/01/13 08:56:49;;;;;;;1.65;1.55;;;5.30;99.90;;;;;;5081097;28;20043;-81
2022/01/13 08:59:15;;;;;;;1.48;1.38;;;5.30;99.90;;;;;;5080441;28;20550;-81
2022/01/13 09:01:41;;;;;;;7.50;1.42;;;5.30;99.90;;;;;;5074766;28;20114;-81
2022/01/13 09:04:07;;;;;;;6.03;1.40;;;5.30;99.90;;;;;;5073014;28;20052;-81
2022/01/13 09:06:33;;;;;;;1.25;1.15;;;5.30;99.90;;;;;;5067278;28;20059;-81
2022/01/13 09:08:59;;;;;;;3.45;1.55;;;5.30;99.90;;;;;;5080964;28;20119;-82
2022/01/13 09:11:24;;;;;;;2.30;1.90;;;5.30;99.90;;;;;;5078951;28;20041;-81
2022/01/13 09:13:56;;;;;;;1.70;1.60;;;5.40;99.90;;;;;;5081779;28;20036;-81
2022/01/13 09:16:24;;;;;;;1.55;1.45;;;5.30;99.90;;;;;;5077366;28;20051;-82
2022/01/13 09:21:26;;;;;;;3.97;1.33;;;5.50;99.90;;;;;;5079189;28;20072;-81
2022/01/13 09:23:53;;;;;;;2.67;2.47;;;5.60;99.90;;;;;;5081233;28;20094;-81
2022/01/13 09:26:19;;;;;;;1.55;1.45;;;5.60;99.90;;;;;;5079361;28;20039;-81
2022/01/13 09:28:44;;;;;;;1.55;1.33;;;5.60;99.90;;;;;;5080098;28;20044;-81
2022/01/13 09:31:10;;;;;;;1.17;1.08;;;5.60;99.90;;;;;;5077522;28;20052;-81
2022/01/13 09:33:36;;;;;;;23.35;1.92;;;5.60;99.90;;;;;;5072021;28;21694;-81
2022/01/13 09:36:06;;;;;;;1.55;1.45;;;5.60;99.90;;;;;;5070760;28;20049;-82
2022/01/13 09:38:31;;;;;;;1.05;1.02;;;5.60;99.90;;;;;;5076987;28;20448;-81
2022/01/13 09:40:57;;;;;;;4.35;2.47;;;5.70;99.90;;;;;;5073156;28;20037;-81
2022/01/13 09:43:25;;;;;;;2.50;1.90;;;5.70;99.90;;;;;;5068258;28;20080;-80
2022/01/13 09:45:52;;;;;;;1.35;1.25;;;5.70;99.90;;;;;;5059072;28;20040;-81
2022/01/13 09:48:18;;;;;;;1.27;1.17;;;5.80;99.90;;;;;;5071826;28;20044;-80
2022/01/13 09:50:46;;;;;;;3.15;2.85;;;5.80;99.90;;;;;;5074801;28;20040;-81
2022/01/13 09:53:12;;;;;;;1.52;1.42;;;5.90;99.90;;;;;;5076950;28;20049;-81
2022/01/13 09:55:38;;;;;;;3.15;2.22;;;5.80;99.90;;;;;;5075118;28;20039;-81
2022/01/13 09:58:10;;;;;;;3.28;1.73;;;5.90;99.90;;;;;;5076169;28;20048;-81
2022/01/13 10:00:37;;;;;;;4.75;2.05;;;5.90;99.90;;;;;;5074841;28;20052;-82
2022/01/13 10:03:14;;;;;;;1.25;1.17;;;5.90;99.90;;;;;;5068609;28;20048;-83
2022/01/13 10:05:59;;;;;;;1.70;1.58;;;5.90;99.90;;;;;;5058052;28;20044;-81
2022/01/13 10:08:48;;;;;;;1.30;1.20;;;6.00;99.90;;;;;;5079009;28;20040;-81
2022/01/13 10:11:35;;;;;;;0.85;0.85;;;6.00;99.90;;;;;;5075964;28;20067;-81
2022/01/13 10:14:06;;;;;;;3.22;1.60;;;5.90;99.90;;;;;;5076172;28;20037;-81
2022/01/13 10:16:32;;;;;;;4.57;2.55;;;6.00;99.90;;;;;;5076534;28;20090;-83
2022/01/13 10:18:59;;;;;;;2.05;1.67;;;6.00;99.90;;;;;;5073211;28;20029;-81
2022/01/13 10:21:25;;;;;;;1.77;1.50;;;6.10;99.90;;;;;;5075557;28;20051;-82
2022/01/13 10:24:09;;;;;;;2.05;1.92;;;6.10;99.90;;;;;;5075618;28;20074;-82
2022/01/13 10:26:37;;;;;;;1.40;1.30;;;6.10;99.90;;;;;;5076489;28;20036;-83
2022/01/13 10:29:07;;;;;;;1.65;1.55;;;6.00;99.90;;;;;;5071515;28;20051;-82
2022/01/13 10:31:43;;;;;;;7.95;2.20;;;6.00;99.90;;;;;;5071972;28;20044;-83
2022/01/13 10:34:28;;;;;;;1.83;1.70;;;6.10;99.90;;;;;;5073910;28;20043;-82
2022/01/13 10:37:07;;;;;;;1.50;1.40;;;6.10;99.90;;;;;;5058801;28;20037;-82
2022/01/13 10:39:59;;;;;;;1.05;0.95;;;6.10;99.90;;;;;;5071232;28;20556;-81
2022/01/13 10:45:03;;;;;;;1.35;1.25;;;6.10;99.90;;;;;;5073260;28;20208;-83
2022/01/13 10:47:30;;;;;;;1.40;1.30;;;6.10;99.90;;;;;;5076397;28;20508;-82
2022/01/13 10:50:06;;;;;;;2.35;1.23;;;6.20;99.90;;;;;;5069531;28;20507;-81
2022/01/13 10:52:32;;;;;;;2.63;2.13;;;6.20;99.90;;;;;;5074601;28;20058;-82
2022/01/13 10:55:14;;;;;;;1.63;1.52;;;6.20;99.90;;;;;;5077180;28;20032;-82
2022/01/13 10:57:42;;;;;;;4.35;2.75;;;6.20;99.90;;;;;;5059956;28;20087;-81
2022/01/13 11:00:32;;;;;;;1.92;1.65;;;6.20;99.90;;;;;;5075320;28;20051;-82
2022/01/13 11:03:13;;;;;;;1.90;1.52;;;6.20;99.90;;;;;;5073815;28;20032;-81
2022/01/13 11:05:46;;;;;;;4.53;2.08;;;6.20;99.90;;;;;;5070881;28;20040;-83
2022/01/13 11:08:18;;;;;;;2.67;2.47;;;6.30;99.90;;;;;;5079220;28;20044;-81
2022/01/13 11:10:48;;;;;;;7.20;2.65;;;6.30;99.90;;;;;;5068176;28;20048;-81
2022/01/13 11:13:20;;;;;;;6.47;2.45;;;6.20;99.90;;;;;;5079913;28;20028;-81
2022/01/13 11:15:52;;;;;;;10.25;2.75;;;6.20;99.90;;;;;;5074146;28;20040;-81
2022/01/13 11:18:22;;;;;;;4.38;2.22;;;6.20;99.90;;;;;;5074046;28;20051;-80
2022/01/13 11:20:48;;;;;;;4.20;2.22;;;6.40;99.90;;;;;;5074969;28;20049;-80
2022/01/13 11:23:19;;;;;;;0.93;0.93;;;6.30;99.90;;;;;;5073351;28;20461;-80
2022/01/13 11:25:47;;;;;;;1.73;1.13;;;6.30;99.90;;;;;;5089715;28;20032;-81
2022/01/13 11:28:13;;;;;;;2.78;2.58;;;6.20;99.90;;;;;;5075049;28;20041;-81
2022/01/13 11:30:39;;;;;;;5.75;2.47;;;6.30;99.90;;;;;;5075275;28;20041;-81
2022/01/13 11:33:05;;;;;;;1.08;0.95;;;6.30;99.90;;;;;;5079456;28;20037;-81
2022/01/13 11:35:45;;;;;;;1.70;1.55;;;6.30;99.90;;;;;;5069410;28;20109;-82
2022/01/13 11:38:13;;;;;;;3.45;2.20;;;6.30;99.90;;;;;;5066314;28;21696;-83
2022/01/13 11:40:44;;;;;;;2.92;1.67;;;6.30;99.90;;;;;;5070315;28;20142;-80
2022/01/13 11:43:30;;;;;;;1.50;1.40;;;6.40;99.90;;;;;;5070730;28;20071;-80
2022/01/13 11:46:10;;;;;;;1.33;1.23;;;6.30;99.90;;;;;;5075521;28;20169;-81
2022/01/13 11:48:38;;;;;;;2.92;2.72;;;6.40;99.90;;;;;;5080356;28;20090;-80
2022/01/13 11:51:16;;;;;;;1.70;1.50;;;6.40;99.90;;;;;;5075576;28;20059;-79
2022/01/13 11:54:04;;;;;;;1.30;1.20;;;6.40;99.90;;;;;;5079359;28;20131;-80
2022/01/13 11:56:30;;;;;;;1.83;1.63;;;6.50;99.90;;;;;;5077602;28;20036;-80
2022/01/13 11:58:57;;;;;;;2.92;1.83;;;6.50;99.90;;;;;;5079492;28;20108;-79
2022/01/13 12:01:29;;;;;;;8.00;2.00;;;6.50;99.90;;;;;;5075536;28;20068;-80
2022/01/13 12:04:06;;;;;;;2.40;1.73;;;6.50;99.90;;;;;;5079536;28;20040;-80
2022/01/13 12:06:44;;;;;;;1.08;1.05;;;6.40;99.90;;;;;;5080730;28;20126;-80
2022/01/13 12:09:22;;;;;;;3.22;1.65;;;6.50;99.90;;;;;;5076169;28;20045;-80
2022/01/13 12:11:55;;;;;;;2.38;1.85;;;6.40;99.90;;;;;;5071004;28;20105;-80
2022/01/13 12:14:27;;;;;;;1.10;1.05;;;6.50;99.90;;;;;;5076835;28;20040;-80
2022/01/13 12:17:04;;;;;;;2.53;1.77;;;6.50;99.90;;;;;;5078584;28;20049;-80
2022/01/13 12:19:40;;;;;;;1.08;1.08;;;6.50;99.90;;;;;;5068589;28;20063;-80
2022/01/13 12:22:15;;;;;;;2.20;2.10;;;6.40;99.90;;;;;;5068715;28;20056;-80
2022/01/13 12:24:46;;;;;;;3.58;2.88;;;6.40;99.90;;;;;;5073874;28;20056;-83
2022/01/13 12:27:12;;;;;;;1.95;1.75;;;6.60;99.90;;;;;;5076831;28;20041;-81
2022/01/13 12:30:08;;;;;;;1.25;1.20;;;6.50;99.90;;;;;;5077883;28;20099;-82
2022/01/13 12:32:43;;;;;;;1.65;1.27;;;6.50;99.90;;;;;;5078044;28;20045;-81
2022/01/13 12:35:12;;;;;;;2.00;1.80;;;6.50;99.90;;;;;;5060328;28;20044;-80
2022/01/13 12:37:39;;;;;;;4.00;2.15;;;6.50;99.90;;;;;;5082094;28;20067;-80
2022/01/13 12:40:18;;;;;;;1.42;1.33;;;6.50;99.90;;;;;;5077530;28;20044;-79
2022/01/13 12:42:51;;;;;;;2.85;2.28;;;6.60;99.90;;;;;;5077330;28;20064;-79
2022/01/13 12:45:33;;;;;;;2.13;1.48;;;6.60;99.90;;;;;;5078901;28;20715;-80
2022/01/13 12:48:05;;;;;;;1.25;1.15;;;6.60;99.90;;;;;;5070528;28;20040;-80
2022/01/13 12:50:38;;;;;;;9.05;1.25;;;6.60;99.90;;;;;;5077919;28;20556;-80
2022/01/13 12:53:16;;;;;;;1.40;1.30;;;6.60;99.90;;;;;;5076111;28;20087;-82
2022/01/13 12:56:00;;;;;;;1.00;0.90;;;6.70;99.90;;;;;;5076977;28;20051;-82
2022/01/13 12:58:28;;;;;;;1.60;1.30;;;6.80;99.90;;;;;;5057123;28;20040;-81
2022/01/13 13:01:12;;;;;;;1.27;1.17;;;6.90;99.90;;;;;;5068073;28;20048;-81
2022/01/13 13:03:39;;;;;;;1.63;1.40;;;7.00;99.90;;;;;;5076665;28;20040;-80
2022/01/13 13:06:13;;;;;;;1.25;1.10;;;7.00;99.90;;;;;;5077207;28;20108;-80
2022/01/13 13:08:43;;;;;;;1.33;1.23;;;7.00;99.90;;;;;;5074013;28;20414;-80
2022/01/13 13:11:09;;;;;;;1.50;1.40;;;7.10;99.90;;;;;;5074492;28;20354;-79
2022/01/13 13:13:45;;;;;;;2.30;2.03;;;7.10;99.90;;;;;;5081593;28;20068;-79
2022/01/13 13:16:11;;;;;;;1.98;1.35;;;7.20;99.90;;;;;;5076137;28;20059;-80
2022/01/13 13:18:37;;;;;;;1.13;1.08;;;7.20;99.90;;;;;;5074730;28;20029;-81
2022/01/13 13:21:05;;;;;;;0.88;0.88;;;7.20;99.90;;;;;;5076308;28;20044;-80
2022/01/13 13:23:34;;;;;;;5.25;3.20;;;7.20;99.90;;;;;;5071226;28;20040;-79
2022/01/13 13:26:14;;;;;;;1.98;1.73;;;7.30;99.90;;;;;;5079475;28;20543;-80
2022/01/13 13:28:47;;;;;;;7.20;1.48;;;7.40;99.90;;;;;;5075108;28;20037;-81
2022/01/13 13:31:13;;;;;;;;;;;7.30;99.90;;;;;;5077887;28;20036;-81